Time;durP1;ratioP1;P1;durP2;ratioP2;P2;SDS_P1;SDS_P2;PMS_P1;PMS_P2;Temp;Humidity;BMP_temperature;BMP_pressure;BME280_temperature;BME280_humidity;BME280_pressure;Samples;Min_cycle;Max_cycle;Signal;HPM_P1;HPM_P2
2022/02/12 00:01:13;;;;;;;23.38;13.00;;;;;;;0.93;85.24;101537.06;2029504;85;21060;-74
2022/02/12 00:04:19;;;;;;;21.90;11.85;;;;;;;0.93;85.18;101530.53;2026368;86;21684;-74
2022/02/12 00:07:21;;;;;;;16.35;9.90;;;;;;;0.91;85.12;101536.31;2012005;85;21053;-75
2022/02/12 00:10:27;;;;;;;13.45;8.23;;;;;;;0.86;85.00;101541.27;2025890;86;21630;-75
2022/02/12 00:13:32;;;;;;;17.45;8.25;;;;;;;0.84;84.83;101551.40;2006033;86;21095;-74
2022/02/12 00:16:37;;;;;;;20.20;8.53;;;;;;;0.83;84.71;101553.17;2028781;85;21590;-74
2022/02/12 00:19:42;;;;;;;13.70;8.05;;;;;;;0.82;84.44;101558.48;2048246;85;21120;-75
2022/02/12 00:22:48;;;;;;;16.00;8.13;;;;;;;0.83;84.44;101564.93;2035325;86;21097;-75
2022/02/12 00:25:51;;;;;;;19.60;9.53;;;;;;;0.80;84.34;101571.61;2027653;86;21107;-75
2022/02/12 00:28:54;;;;;;;20.30;10.63;;;;;;;0.77;84.30;101570.44;2048721;85;21018;-75
2022/02/12 00:31:59;;;;;;;19.52;9.05;;;;;;;0.76;84.28;101570.48;2050790;85;21540;-75
2022/02/12 00:35:04;;;;;;;21.20;8.80;;;;;;;0.77;84.34;101575.66;2052175;85;21092;-74
2022/02/12 00:38:09;;;;;;;19.17;9.18;;;;;;;0.80;84.38;101578.60;2004578;85;21075;-75
2022/02/12 00:41:12;;;;;;;20.68;9.93;;;;;;;0.81;84.33;101582.90;2032395;85;21068;-74
2022/02/12 00:44:16;;;;;;;15.63;8.88;;;;;;;0.81;84.25;101582.90;2032527;86;21052;-75
2022/02/12 00:47:20;;;;;;;23.30;10.75;;;;;;;0.77;84.10;101592.64;2027832;85;21045;-75
2022/02/12 00:50:22;;;;;;;20.43;9.73;;;;;;;0.72;84.04;101607.67;2002670;86;21041;-75
2022/02/12 00:53:27;;;;;;;27.95;12.07;;;;;;;0.66;84.00;101607.48;2024108;86;21096;-74
2022/02/12 00:56:32;;;;;;;36.42;13.13;;;;;;;0.61;83.95;101603.37;2051964;84;21137;-74
2022/02/12 00:59:35;;;;;;;35.23;14.90;;;;;;;0.56;83.95;101607.94;2030451;85;21314;-74
2022/02/12 01:02:40;;;;;;;40.52;14.13;;;;;;;0.55;84.02;101621.47;2027964;86;21100;-74
2022/02/12 01:05:42;;;;;;;28.10;12.25;;;;;;;0.51;83.97;101625.56;2027788;86;21131;-74
2022/02/12 01:08:46;;;;;;;22.05;11.30;;;;;;;0.44;84.00;101622.38;2025208;86;21108;-74
2022/02/12 01:11:51;;;;;;;19.92;9.60;;;;;;;0.38;84.02;101632.63;2030050;86;21079;-74
2022/02/12 01:14:56;;;;;;;19.42;8.45;;;;;;;0.34;84.02;101648.47;2028898;85;21068;-74
2022/02/12 01:18:01;;;;;;;17.25;8.85;;;;;;;0.31;83.99;101652.09;2024848;85;22341;-74
2022/02/12 01:21:05;;;;;;;21.60;9.50;;;;;;;0.29;83.96;101656.98;2036245;85;21139;-74
2022/02/12 01:24:09;;;;;;;19.10;9.10;;;;;;;0.25;83.91;101652.31;2012550;85;21148;-74
2022/02/12 01:27:14;;;;;;;21.95;8.85;;;;;;;0.23;83.85;101652.86;2023705;86;21622;-74
2022/02/12 01:30:19;;;;;;;20.30;7.67;;;;;;;0.17;83.78;101653.96;2010501;85;21140;-74
2022/02/12 01:33:22;;;;;;;24.02;10.30;;;;;;;0.16;83.68;101655.31;2004622;85;21053;-74
2022/02/12 01:36:27;;;;;;;25.30;9.65;;;;;;;0.12;83.60;101656.36;2033004;85;21091;-75
2022/02/12 01:39:31;;;;;;;24.80;8.83;;;;;;;0.09;83.44;101654.72;2035872;85;21088;-74
2022/02/12 01:42:33;;;;;;;22.27;9.10;;;;;;;0.07;83.37;101666.13;2008146;86;21056;-75
2022/02/12 01:45:38;;;;;;;14.63;6.08;;;;;;;0.04;83.17;101675.39;2032812;85;21026;-74
2022/02/12 01:48:43;;;;;;;13.15;5.65;;;;;;;-0.01;83.20;101680.33;2016553;85;21615;-74
2022/02/12 01:51:47;;;;;;;15.48;6.50;;;;;;;-0.01;83.19;101685.55;2023343;85;22023;-74
2022/02/12 01:54:51;;;;;;;14.68;6.05;;;;;;;-0.04;83.04;101683.52;2030007;85;21009;-74
2022/02/12 01:57:54;;;;;;;12.75;6.03;;;;;;;-0.08;82.98;101695.00;2006297;85;21649;-74
2022/02/12 02:00:57;;;;;;;11.00;4.85;;;;;;;-0.14;82.88;101703.92;1979183;86;21685;-74
2022/02/12 02:04:00;;;;;;;15.13;5.50;;;;;;;-0.18;82.86;101705.39;2024060;86;21128;-74
2022/02/12 02:07:02;;;;;;;13.22;5.97;;;;;;;-0.22;82.81;101711.19;2008661;86;21089;-74
2022/02/12 02:10:06;;;;;;;17.48;6.92;;;;;;;-0.26;82.75;101717.41;2025813;86;21030;-74
2022/02/12 02:13:20;;;;;;;13.60;6.58;;;;;;;-0.31;82.77;101729.77;1984172;86;21054;-74
2022/02/12 02:16:24;;;;;;;11.70;6.10;;;;;;;-0.35;82.72;101732.95;2021492;85;21080;-74
2022/02/12 02:19:26;;;;;;;13.95;5.87;;;;;;;-0.39;82.72;101736.60;1964742;85;21096;-75
2022/02/12 02:22:42;;;;;;;11.70;5.78;;;;;;;-0.42;82.68;101747.58;2012137;85;21056;-74
2022/02/12 02:25:47;;;;;;;14.85;6.05;;;;;;;-0.47;82.73;101751.22;2010424;85;21160;-75
2022/02/12 02:28:50;;;;;;;15.28;5.20;;;;;;;-0.51;82.84;101740.52;2029480;85;21063;-75
2022/02/12 02:31:53;;;;;;;10.75;6.08;;;;;;;-0.52;83.00;101749.23;2029929;86;21583;-75
2022/02/12 02:34:57;;;;;;;9.25;6.30;;;;;;;-0.55;83.02;101750.64;2024219;86;21045;-74
2022/02/12 02:38:13;;;;;;;14.35;6.58;;;;;;;-0.55;83.03;101757.62;2034339;86;21118;-74
2022/02/12 02:41:18;;;;;;;14.23;6.97;;;;;;;-0.56;83.12;101758.08;2030786;85;21429;-75
2022/02/12 02:44:21;;;;;;;10.65;5.92;;;;;;;-0.57;83.07;101760.73;2012346;86;21084;-75
2022/02/12 02:47:40;;;;;;;14.95;6.15;;;;;;;-0.58;83.08;101769.02;2009501;86;21135;-75
2022/02/12 02:57:25;;;;;;;15.13;6.65;;;;;;;-0.62;83.18;101772.65;2045065;85;21080;-75
2022/02/12 03:00:28;;;;;;;13.80;6.28;;;;;;;-0.62;83.21;101783.08;2026096;85;21053;-75
2022/02/12 03:03:32;;;;;;;12.93;6.37;;;;;;;-0.65;83.23;101786.22;2027978;85;21082;-75
2022/02/12 03:06:34;;;;;;;17.42;6.42;;;;;;;-0.66;83.29;101787.98;1979204;85;21081;-75
2022/02/12 03:09:38;;;;;;;15.93;5.37;;;;;;;-0.67;83.28;101799.79;2030288;86;21638;-75
2022/02/12 03:12:42;;;;;;;14.80;6.08;;;;;;;-0.67;83.30;101795.42;2027446;85;21104;-75
2022/02/12 03:15:49;;;;;;;13.32;5.40;;;;;;;-0.69;83.29;101801.13;2047019;85;21096;-74
2022/02/12 03:18:51;;;;;;;12.90;5.72;;;;;;;-0.73;83.29;101804.30;2029432;86;21072;-74
2022/02/12 03:21:59;;;;;;;13.30;6.10;;;;;;;-0.77;83.24;101814.42;2008776;86;21066;-74
2022/02/12 03:25:04;;;;;;;12.82;5.05;;;;;;;-0.80;83.23;101808.47;2049296;85;21061;-74
2022/02/12 03:28:08;;;;;;;13.55;6.12;;;;;;;-0.85;83.24;101816.44;2046459;85;21145;-74
2022/02/12 03:31:13;;;;;;;14.25;6.35;;;;;;;-0.84;83.33;101822.52;2045518;85;21068;-74
2022/02/12 03:34:15;;;;;;;12.43;5.00;;;;;;;-0.89;83.34;101825.73;2033423;86;21116;-74
2022/02/12 03:37:26;;;;;;;17.48;5.80;;;;;;;-0.94;83.29;101830.63;2033719;86;21362;-74
2022/02/12 03:40:30;;;;;;;17.23;6.15;;;;;;;-0.97;83.26;101834.64;2033382;86;21045;-74
2022/02/12 03:43:36;;;;;;;17.35;6.05;;;;;;;-1.02;83.21;101824.81;2030055;85;21044;-74
2022/02/12 03:46:39;;;;;;;17.80;6.28;;;;;;;-1.04;83.30;101831.86;2030064;85;21057;-74
2022/02/12 03:49:45;;;;;;;13.58;5.42;;;;;;;-1.08;83.21;101842.42;2026584;85;21079;-74
2022/02/12 03:52:49;;;;;;;14.07;6.55;;;;;;;-1.05;83.40;101847.52;2031024;86;21111;-74
2022/02/12 03:55:54;;;;;;;18.55;6.22;;;;;;;-1.05;83.23;101849.67;2048443;85;21125;-74
2022/02/12 03:58:59;;;;;;;11.57;6.00;;;;;;;-1.07;83.25;101851.92;2026342;86;21024;-74
2022/02/12 04:02:03;;;;;;;12.43;5.95;;;;;;;-1.09;83.23;101855.90;2033367;86;21057;-74
2022/02/12 04:05:10;;;;;;;11.10;5.50;;;;;;;-1.10;83.22;101858.08;2028714;85;21112;-74
2022/02/12 04:08:21;;;;;;;10.78;5.58;;;;;;;-1.13;83.18;101862.09;2029760;86;21127;-74
2022/02/12 04:11:21;;;;;;;11.55;5.45;;;;;;;-1.22;82.86;101859.79;2029353;85;21123;-74
2022/02/12 04:14:26;;;;;;;11.22;5.83;;;;;;;-1.28;82.96;101866.50;2046350;85;21001;-75
2022/02/12 04:17:27;;;;;;;19.70;8.25;;;;;;;-1.31;82.99;101879.62;2047942;85;21088;-75
2022/02/12 04:20:32;;;;;;;16.42;6.40;;;;;;;-1.36;83.15;101874.55;1984303;86;21132;-75
2022/02/12 04:23:35;;;;;;;11.48;4.90;;;;;;;-1.38;83.19;101868.09;2048692;85;21056;-75
2022/02/12 04:26:39;;;;;;;13.30;5.87;;;;;;;-1.37;83.22;101883.27;2030651;85;21100;-75
2022/02/12 04:29:41;;;;;;;15.78;5.87;;;;;;;-1.38;83.15;101885.03;2031529;86;21024;-75
2022/02/12 04:32:46;;;;;;;13.20;5.75;;;;;;;-1.40;83.19;101884.21;2047368;85;21587;-75
2022/02/12 04:35:49;;;;;;;11.00;5.45;;;;;;;-1.38;83.26;101890.23;2004533;86;21554;-75
2022/02/12 04:38:53;;;;;;;14.05;5.97;;;;;;;-1.36;83.31;101896.22;2031019;86;21076;-75
2022/02/12 04:41:54;;;;;;;14.85;5.80;;;;;;;-1.38;83.22;101895.86;2026365;85;21028;-75
2022/02/12 04:44:57;;;;;;;11.30;5.70;;;;;;;-1.41;83.21;101888.15;2043269;85;22109;-75
2022/02/12 04:48:01;;;;;;;11.65;5.17;;;;;;;-1.43;83.12;101895.17;2047524;85;21571;-75
2022/02/12 04:51:06;;;;;;;13.10;6.25;;;;;;;-1.47;83.10;101888.34;2029578;86;21555;-76
2022/02/12 04:54:11;;;;;;;13.65;5.65;;;;;;;-1.45;83.22;101887.85;2041967;85;21079;-75
2022/02/12 04:57:14;;;;;;;13.08;5.97;;;;;;;-1.47;83.07;101885.28;2031987;85;21072;-75
2022/02/12 05:00:18;;;;;;;12.23;5.92;;;;;;;-1.52;83.09;101884.59;2049132;85;21092;-75
2022/02/12 05:03:21;;;;;;;11.50;5.35;;;;;;;-1.54;83.09;101888.98;2031064;85;21052;-75
2022/02/12 05:06:24;;;;;;;14.90;5.97;;;;;;;-1.51;83.20;101890.65;2046177;85;21107;-75
2022/02/12 05:09:26;;;;;;;12.70;6.10;;;;;;;-1.51;83.09;101891.95;2044277;85;21088;-75
2022/02/12 05:12:32;;;;;;;14.45;5.80;;;;;;;-1.55;83.07;101895.07;2001301;85;21119;-75
2022/02/12 05:15:35;;;;;;;17.98;5.80;;;;;;;-1.56;83.11;101889.47;2030705;85;21069;-75
2022/02/12 05:18:38;;;;;;;13.68;5.25;;;;;;;-1.55;83.12;101890.32;2026181;86;21583;-75
2022/02/12 05:21:41;;;;;;;11.83;5.67;;;;;;;-1.56;83.13;101889.93;2027437;85;21544;-75
2022/02/12 05:24:46;;;;;;;11.55;5.00;;;;;;;-1.56;83.11;101893.38;2051861;85;21132;-75
2022/02/12 05:27:49;;;;;;;10.55;4.95;;;;;;;-1.53;83.20;101899.80;2028927;85;21109;-75
2022/02/12 05:30:53;;;;;;;12.78;5.33;;;;;;;-1.57;82.92;101903.85;2024252;85;21599;-75
2022/02/12 05:33:56;;;;;;;16.27;6.15;;;;;;;-1.70;82.54;101900.74;2024689;86;21065;-75
2022/02/12 05:36:59;;;;;;;12.13;5.30;;;;;;;-1.75;82.83;101909.97;2029544;86;21485;-75
2022/02/12 05:40:03;;;;;;;12.25;5.60;;;;;;;-1.74;83.00;101909.55;2050355;85;21069;-75
2022/02/12 05:43:08;;;;;;;11.20;5.12;;;;;;;-1.72;82.99;101907.73;1993609;85;21095;-75
2022/02/12 05:46:11;;;;;;;13.15;6.05;;;;;;;-1.71;82.92;101914.66;2008130;86;21096;-75
2022/02/12 05:49:17;;;;;;;12.05;5.58;;;;;;;-1.71;82.98;101911.61;2046979;86;21098;-75
2022/02/12 05:52:24;;;;;;;11.08;5.97;;;;;;;-1.73;82.85;101913.84;2042938;85;21076;-75
2022/02/12 05:55:27;;;;;;;13.30;5.70;;;;;;;-1.76;82.86;101917.39;2040818;85;21064;-75
2022/02/12 05:58:29;;;;;;;15.48;5.55;;;;;;;-1.75;82.89;101920.84;2010575;85;22335;-75
2022/02/12 06:01:35;;;;;;;17.73;8.63;;;;;;;-1.79;82.84;101923.14;2031616;85;22353;-75
2022/02/12 06:04:40;;;;;;;16.65;8.58;;;;;;;-1.77;83.10;101922.63;2029197;86;21636;-75
2022/02/12 06:07:42;;;;;;;15.30;7.45;;;;;;;-1.73;83.23;101930.77;2052908;85;21730;-75
2022/02/12 06:10:50;;;;;;;23.20;10.43;;;;;;;-1.73;83.10;101928.16;2012307;85;21111;-75
2022/02/12 06:13:53;;;;;;;24.92;10.53;;;;;;;-1.76;83.10;101930.86;2028783;86;21044;-75
2022/02/12 06:16:57;;;;;;;31.15;11.15;;;;;;;-1.78;83.15;101928.73;2023837;86;21029;-75
2022/02/12 06:20:00;;;;;;;23.27;11.53;;;;;;;-1.77;83.17;101938.23;2050893;85;21116;-75
2022/02/12 06:23:03;;;;;;;20.57;10.88;;;;;;;-1.77;83.11;101947.34;2026957;85;21645;-75
2022/02/12 06:26:07;;;;;;;25.25;10.90;;;;;;;-1.74;83.21;101957.25;2005343;85;21098;-75
2022/02/12 06:29:14;;;;;;;25.25;11.33;;;;;;;-1.69;83.30;101959.28;1988927;85;21081;-76
2022/02/12 06:32:21;;;;;;;22.95;11.93;;;;;;;-1.56;83.36;101959.77;2028083;86;21173;-75
2022/02/12 06:35:24;;;;;;;22.13;11.57;;;;;;;-1.45;83.31;101959.00;2028058;86;21091;-75
2022/02/12 06:38:29;;;;;;;24.37;12.03;;;;;;;-1.34;83.20;101968.27;2043288;85;21068;-75
2022/02/12 06:41:35;;;;;;;29.02;13.90;;;;;;;-1.18;83.14;101969.06;2051293;85;21072;-75
2022/02/12 06:44:40;;;;;;;25.62;12.40;;;;;;;-0.95;83.36;101974.03;2006762;85;21036;-74
2022/02/12 06:47:44;;;;;;;22.25;11.43;;;;;;;-0.61;83.47;101981.63;2028673;86;21040;-74
2022/02/12 06:50:48;;;;;;;26.68;14.55;;;;;;;-0.28;83.12;101985.34;2005398;85;21135;-75
2022/02/12 06:53:52;;;;;;;29.80;16.97;;;;;;;0.08;83.16;101981.89;2008534;85;21052;-75
2022/02/12 06:56:56;;;;;;;32.93;17.27;;;;;;;0.44;83.06;101986.71;2026040;85;21600;-75
2022/02/12 07:00:02;;;;;;;26.77;12.55;;;;;;;0.80;82.88;101994.95;2031558;85;21381;-75
2022/02/12 07:03:06;;;;;;;26.05;13.08;;;;;;;1.14;82.50;102000.64;2028255;86;21096;-75
2022/02/12 07:06:12;;;;;;;24.63;12.33;;;;;;;1.38;82.13;102004.91;2034992;85;21113;-75
2022/02/12 07:09:15;;;;;;;22.22;10.55;;;;;;;1.64;81.86;102001.23;2049685;85;21049;-75
2022/02/12 07:12:18;;;;;;;16.85;8.98;;;;;;;1.92;81.69;102014.48;2023093;85;21083;-75
2022/02/12 07:15:21;;;;;;;21.17;10.05;;;;;;;2.17;81.37;102015.12;2031398;86;21056;-76
2022/02/12 07:18:23;;;;;;;28.45;10.20;;;;;;;2.58;81.77;102025.55;2052187;85;21583;-76
2022/02/12 07:21:27;;;;;;;18.70;9.58;;;;;;;3.00;81.57;102022.35;2053270;85;22206;-75
2022/02/12 07:24:30;;;;;;;22.10;10.25;;;;;;;3.33;80.78;102031.72;1983206;85;21562;-85
2022/02/12 07:27:32;;;;;;;18.52;8.10;;;;;;;3.50;80.03;102031.75;2031530;86;21073;-79
2022/02/12 07:30:36;;;;;;;15.13;6.70;;;;;;;3.76;80.00;102033.09;2028588;86;21559;-77
2022/02/12 07:33:43;;;;;;;16.90;7.75;;;;;;;4.06;79.79;102040.37;2047324;85;21077;-77
2022/02/12 07:36:46;;;;;;;14.73;6.15;;;;;;;4.17;78.70;102035.42;2008829;85;21601;-76
2022/02/12 07:39:48;;;;;;;18.87;6.20;;;;;;;4.23;78.47;102039.52;2020271;85;21606;-77
2022/02/12 07:42:52;;;;;;;13.85;6.45;;;;;;;4.19;77.76;102040.59;2025828;85;21096;-76
2022/02/12 07:45:54;;;;;;;15.15;6.55;;;;;;;4.01;77.08;102045.01;2027923;85;21523;-77
2022/02/12 07:48:58;;;;;;;13.40;5.42;;;;;;;3.90;77.21;102043.38;2008376;85;21037;-80
2022/02/12 07:52:01;;;;;;;13.08;5.90;;;;;;;3.72;76.82;102045.16;2029258;85;21049;-77
2022/02/12 07:55:04;;;;;;;17.87;6.05;;;;;;;3.57;76.88;102041.02;2052763;84;21019;-78
2022/02/12 07:58:11;;;;;;;16.23;5.85;;;;;;;3.47;76.80;102052.06;2028688;85;22016;-81
2022/02/12 08:01:14;;;;;;;19.07;6.45;;;;;;;3.41;76.73;102054.52;2028103;85;21096;-85
2022/02/12 08:04:17;;;;;;;20.65;7.12;;;;;;;3.39;76.89;102052.42;2007360;85;21113;-79
2022/02/12 08:07:31;;;;;;;32.78;12.00;;;;;;;3.50;77.07;102052.75;2006899;85;21088;-78
2022/02/12 08:13:54;;;;;;;;;;;;;;;4.03;76.87;102053.20;2025615;85;21112;-85
2022/02/12 08:16:58;;;;;;;21.05;7.50;;;;;;;4.41;76.85;102050.37;2031641;85;20165;-78
2022/02/12 08:20:01;;;;;;;18.82;6.42;;;;;;;4.78;76.45;102059.42;2030883;85;21556;-78
2022/02/12 08:23:05;;;;;;;15.98;7.53;;;;;;;5.11;76.09;102048.39;2030886;85;21128;-77
2022/02/12 08:26:10;;;;;;;13.50;5.78;;;;;;;5.50;75.75;102057.64;2032660;85;21053;-76
2022/02/12 08:29:14;;;;;;;20.23;6.22;;;;;;;5.79;74.73;102052.48;2004418;85;21076;-81
2022/02/12 08:32:18;;;;;;;15.20;6.42;;;;;;;5.98;74.60;102051.83;2047899;85;21092;-75
2022/02/12 08:35:23;;;;;;;19.35;6.58;;;;;;;6.35;74.56;102057.56;2048078;85;21111;-77
2022/02/12 08:38:26;;;;;;;18.62;9.65;;;;;;;6.54;73.77;102067.02;2023932;86;21152;-81
2022/02/12 08:41:30;;;;;;;17.37;9.33;;;;;;;6.87;73.85;102071.98;2027616;86;21085;-80
2022/02/12 08:44:37;;;;;;;16.90;7.15;;;;;;;7.04;72.71;102074.45;2044713;85;21085;-83
2022/02/12 08:47:44;;;;;;;17.52;7.47;;;;;;;6.94;71.50;102077.27;2001788;85;21572;-80
2022/02/12 08:50:47;;;;;;;10.93;5.62;;;;;;;6.71;71.47;102073.42;2045472;85;21594;-81
2022/02/12 08:53:49;;;;;;;16.77;6.40;;;;;;;6.78;71.41;102072.56;2029972;85;21037;-81
2022/02/12 08:56:57;;;;;;;14.28;6.30;;;;;;;6.87;71.30;102073.30;2029572;85;21080;-78
2022/02/12 09:00:01;;;;;;;15.48;5.45;;;;;;;6.87;70.95;102070.22;2001847;85;21104;-80
2022/02/12 09:03:07;;;;;;;13.90;5.62;;;;;;;6.92;70.64;102079.99;2007770;85;21119;-82
2022/02/12 09:06:11;;;;;;;15.43;6.87;;;;;;;7.05;70.01;102080.09;2026321;85;21542;-83
2022/02/12 09:09:15;;;;;;;14.85;6.22;;;;;;;7.09;70.16;102090.81;2032268;85;21687;-81
2022/02/12 09:12:20;;;;;;;10.13;5.28;;;;;;;7.33;69.83;102083.63;2027962;86;21108;-82
2022/02/12 09:15:23;;;;;;;10.45;5.55;;;;;;;7.31;69.31;102082.88;2052712;85;21116;-81
2022/02/12 09:18:29;;;;;;;9.08;5.28;;;;;;;7.51;69.25;102085.56;2012520;86;21112;-81
2022/02/12 09:21:33;;;;;;;15.05;5.95;;;;;;;7.56;69.19;102081.67;2046244;85;21041;-81
2022/02/12 09:24:36;;;;;;;17.95;6.45;;;;;;;7.72;68.69;102072.28;2033610;85;21631;-89
2022/02/12 09:27:38;;;;;;;15.25;5.12;;;;;;;7.78;67.97;102073.68;2010853;85;21056;-78
2022/02/12 09:30:44;;;;;;;17.10;5.92;;;;;;;7.82;67.99;102077.32;2049881;85;21084;-78
2022/02/12 09:33:55;;;;;;;13.13;4.70;;;;;;;8.04;68.15;102078.07;2009657;86;21139;-87
2022/02/12 09:37:00;;;;;;;12.53;5.80;;;;;;;8.11;66.34;102084.27;2028685;85;21152;-82
2022/02/12 09:40:09;;;;;;;14.55;5.10;;;;;;;7.90;66.78;102082.59;2032910;85;21053;-82
2022/02/12 09:43:13;;;;;;;16.35;5.80;;;;;;;7.66;66.78;102087.23;2032410;85;21072;-79
2022/02/12 09:46:46;;;;;;;14.70;5.37;;;;;;;7.50;66.67;102086.03;1981866;85;21566;-78
2022/02/12 09:49:50;;;;;;;16.15;4.85;;;;;;;7.16;66.10;102088.19;2011330;85;21017;-81
2022/02/12 09:52:55;;;;;;;10.75;4.75;;;;;;;6.96;66.43;102092.55;2053567;85;21041;-88
2022/02/12 09:55:59;;;;;;;11.33;4.42;;;;;;;6.89;66.47;102100.45;1983311;85;21056;-79
2022/02/12 09:59:01;;;;;;;15.50;4.80;;;;;;;6.53;65.95;102092.52;2028154;85;21093;-86
2022/02/12 10:02:07;;;;;;;13.78;6.08;;;;;;;6.50;66.31;102099.30;2047510;85;21061;-82
2022/02/12 10:05:31;;;;;;;15.45;4.42;;;;;;;6.46;66.27;102099.95;2027272;86;21144;-79
2022/02/12 10:08:37;;;;;;;13.13;4.42;;;;;;;6.23;65.65;102089.94;2028401;85;21611;-80
2022/02/12 10:11:50;;;;;;;9.88;4.45;;;;;;;5.76;65.71;102105.35;2029041;86;21067;-80
2022/02/12 10:14:55;;;;;;;13.00;4.67;;;;;;;5.77;66.12;102096.06;2029001;85;21013;-85
2022/02/12 10:18:00;;;;;;;14.03;4.53;;;;;;;5.73;65.69;102098.95;2027929;85;21069;-80
2022/02/12 10:21:03;;;;;;;10.45;3.52;;;;;;;5.96;66.17;102087.11;2028962;85;21056;-81
2022/02/12 10:24:06;;;;;;;12.98;2.70;;;;;;;6.17;64.95;102088.98;1998156;86;21070;-79
2022/02/12 10:27:09;;;;;;;9.68;3.22;;;;;;;6.31;65.37;102085.50;2031765;86;21076;-79
2022/02/12 10:30:12;;;;;;;12.00;3.40;;;;;;;6.46;65.15;102081.49;2022477;86;21136;-79
2022/02/12 10:33:15;;;;;;;13.43;4.12;;;;;;;6.52;64.17;102081.59;2010920;86;21095;-81
2022/02/12 10:36:19;;;;;;;16.85;5.80;;;;;;;6.45;64.01;102087.72;2025871;86;20981;-82
2022/02/12 10:39:22;;;;;;;14.90;5.08;;;;;;;6.49;64.04;102080.47;2004196;85;21052;-79
2022/02/12 10:42:27;;;;;;;11.45;4.70;;;;;;;6.44;64.23;102080.73;2048679;85;21064;-85
2022/02/12 10:45:32;;;;;;;11.05;3.87;;;;;;;6.55;64.44;102072.66;2030228;86;21117;-79
2022/02/12 10:48:40;;;;;;;10.53;3.75;;;;;;;6.54;64.12;102072.28;2009771;86;21028;-81
2022/02/12 10:51:46;;;;;;;12.73;3.80;;;;;;;6.25;63.74;102073.53;2008532;86;21495;-80
2022/02/12 10:54:52;;;;;;;10.13;3.72;;;;;;;6.36;64.08;102068.47;2002554;86;21109;-80
2022/02/12 10:57:57;;;;;;;9.40;3.65;;;;;;;6.72;63.62;102054.00;2032028;86;21041;-80
2022/02/12 11:01:01;;;;;;;11.97;3.27;;;;;;;6.89;63.39;102044.56;2027494;86;21017;-79
2022/02/12 11:04:08;;;;;;;10.00;2.98;;;;;;;6.70;61.73;102044.88;2029793;86;21072;-80
2022/02/12 11:07:17;;;;;;;12.75;3.05;;;;;;;6.15;61.35;102048.20;2007885;86;21160;-80
2022/02/12 11:10:21;;;;;;;6.83;3.25;;;;;;;6.13;61.96;102037.37;2003151;86;22351;-81
2022/02/12 11:13:26;;;;;;;9.40;4.22;;;;;;;6.31;62.03;102040.69;2025769;86;21076;-81
2022/02/12 11:16:31;;;;;;;8.15;3.37;;;;;;;6.25;61.65;102036.63;2030895;86;21044;-83
2022/02/12 11:19:34;;;;;;;16.07;5.20;;;;;;;5.85;61.87;102031.89;2011341;85;21080;-83
2022/02/12 11:22:41;;;;;;;22.30;10.05;;;;;;;5.45;62.18;102030.71;1984646;85;21195;-80
2022/02/12 11:25:43;;;;;;;12.20;4.28;;;;;;;5.24;62.19;102026.67;2051818;85;21144;-80
2022/02/12 11:28:48;;;;;;;11.12;3.55;;;;;;;5.49;62.90;102024.80;2006789;86;21070;-82
2022/02/12 11:32:16;;;;;;;13.83;4.03;;;;;;;5.70;61.16;102016.99;2027045;85;21060;-81
2022/02/12 11:35:23;;;;;;;12.65;4.30;;;;;;;5.86;62.48;102018.28;2028531;86;21595;-81
2022/02/12 11:38:43;;;;;;;8.10;2.72;;;;;;;6.11;62.24;102019.03;2007177;85;21530;-80
2022/02/12 11:41:53;;;;;;;8.10;2.55;;;;;;;6.01;57.18;102020.50;2045055;85;21571;-83
2022/02/12 11:44:58;;;;;;;14.00;6.00;;;;;;;5.90;58.49;102009.72;2031429;85;21045;-81
2022/02/12 11:48:30;;;;;;;11.38;4.03;;;;;;;5.73;59.53;101998.38;2044906;85;21076;-78
2022/02/12 11:51:32;;;;;;;4.85;2.37;;;;;;;5.85;59.82;102004.23;2024306;86;21092;-79
2022/02/12 11:55:00;;;;;;;6.92;3.17;;;;;;;5.92;59.79;102002.58;2002373;86;21109;-78
2022/02/12 11:58:00;;;;;;;9.13;3.77;;;;;;;5.70;57.41;101997.72;2031113;85;21650;-76
2022/02/12 12:01:06;;;;;;;7.80;3.10;;;;;;;5.28;57.75;101995.28;2010669;86;21119;-83
2022/02/12 12:04:15;;;;;;;9.75;2.95;;;;;;;5.06;56.98;101998.27;2005765;86;21103;-78
2022/02/12 12:07:20;;;;;;;7.33;3.15;;;;;;;4.85;58.58;101994.58;2028607;86;20974;-81
2022/02/12 12:10:22;;;;;;;9.55;3.72;;;;;;;4.98;58.68;101991.27;2034816;86;21339;-79
2022/02/12 12:13:32;;;;;;;9.95;2.80;;;;;;;4.76;56.52;101990.27;2032490;86;21087;-81
2022/02/12 12:16:36;;;;;;;7.83;2.50;;;;;;;4.47;57.90;101986.12;2048177;85;21626;-80
2022/02/12 12:19:53;;;;;;;8.75;2.50;;;;;;;4.41;58.33;101981.19;2048875;85;21010;-79
2022/02/12 12:23:08;;;;;;;11.48;3.27;;;;;;;4.33;57.37;101978.96;2007692;85;21113;-80
2022/02/12 12:26:13;;;;;;;6.45;3.22;;;;;;;4.37;58.53;101971.31;2025862;85;21057;-78
2022/02/12 12:32:50;;;;;;;9.30;3.05;;;;;;;3.91;56.45;101961.03;2049259;86;21662;-76
2022/02/12 12:35:57;;;;;;;;;;;;;;;3.92;58.57;101958.81;2033134;86;21057;-82
2022/02/12 12:39:02;;;;;;;9.28;3.15;;;;;;;4.01;58.55;101948.66;2009931;85;20592;-77
2022/02/12 12:42:19;;;;;;;7.40;2.90;;;;;;;4.21;59.26;101942.83;2026496;85;21088;-78
2022/02/12 12:45:25;;;;;;;9.38;3.02;;;;;;;4.46;58.64;101942.37;2027697;85;21091;-84
2022/02/12 12:48:34;;;;;;;9.90;3.52;;;;;;;4.60;58.89;101937.69;2002949;86;21120;-83
2022/02/12 12:51:37;;;;;;;8.10;2.72;;;;;;;4.92;58.61;101931.94;2008316;86;21048;-84
2022/02/12 12:54:46;;;;;;;9.30;2.35;;;;;;;5.23;58.48;101931.53;2035965;85;21056;-83
2022/02/12 12:57:51;;;;;;;6.83;2.60;;;;;;;5.18;54.23;101918.65;2007499;86;21071;-80
2022/02/12 13:01:11;;;;;;;7.62;3.17;;;;;;;4.71;56.36;101913.80;2049882;85;21056;-79
2022/02/12 13:04:16;;;;;;;5.80;2.90;;;;;;;4.63;57.81;101917.32;2022968;85;21524;-81
2022/02/12 13:07:24;;;;;;;10.13;2.70;;;;;;;4.84;56.83;101912.67;2029540;85;21244;-82
2022/02/12 13:10:32;;;;;;;5.55;1.90;;;;;;;4.78;57.09;101910.83;2030116;86;21099;-81
2022/02/12 13:13:36;;;;;;;5.00;2.10;;;;;;;4.63;55.88;101902.02;2029669;85;21089;-80
2022/02/12 13:16:43;;;;;;;8.65;2.67;;;;;;;4.33;56.57;101900.59;2030516;86;21080;-84
2022/02/12 13:19:55;;;;;;;6.50;2.77;;;;;;;4.21;56.10;101891.59;2036301;85;21148;-82
2022/02/12 13:23:00;;;;;;;7.05;2.80;;;;;;;4.10;56.38;101893.47;2027919;86;21713;-82
2022/02/12 13:26:04;;;;;;;8.60;3.02;;;;;;;4.01;56.65;101890.03;2034976;86;21159;-83
2022/02/12 13:29:20;;;;;;;9.05;2.12;;;;;;;4.23;56.09;101877.91;2005149;86;21036;-81
2022/02/12 13:32:24;;;;;;;5.05;2.40;;;;;;;4.15;54.91;101887.52;2008309;86;22593;-81
2022/02/12 13:35:27;;;;;;;6.80;2.72;;;;;;;3.93;55.30;101877.77;2049159;85;21029;-81
2022/02/12 13:38:37;;;;;;;10.98;2.80;;;;;;;3.82;55.67;101871.75;2034817;85;21096;-82
2022/02/12 13:41:46;;;;;;;12.55;3.15;;;;;;;3.65;54.55;101875.73;2006268;85;21099;-83
2022/02/12 13:44:59;;;;;;;5.70;2.80;;;;;;;3.62;56.50;101875.89;2034937;85;21130;-82
2022/02/12 13:48:07;;;;;;;8.03;2.72;;;;;;;3.66;56.17;101869.53;2013484;86;21108;-81
2022/02/12 13:51:21;;;;;;;6.90;2.85;;;;;;;3.54;54.92;101871.02;2027878;86;21144;-84
2022/02/12 13:54:25;;;;;;;7.37;2.85;;;;;;;3.44;55.62;101870.66;2031858;86;21072;-83
2022/02/12 13:57:29;;;;;;;7.72;2.80;;;;;;;3.40;56.23;101861.69;2037313;86;21105;-83
2022/02/12 14:00:33;;;;;;;6.25;2.27;;;;;;;3.42;56.16;101854.13;2031582;85;21364;-80
2022/02/12 14:03:46;;;;;;;7.85;3.20;;;;;;;3.33;54.92;101848.89;2029706;86;21001;-76
2022/02/12 14:06:49;;;;;;;7.62;2.98;;;;;;;3.28;55.45;101846.95;2040249;86;21032;-84
2022/02/12 14:09:56;;;;;;;9.88;3.60;;;;;;;3.21;56.06;101844.70;2034079;86;21124;-88
2022/02/12 14:13:02;;;;;;;14.40;4.80;;;;;;;3.21;56.38;101848.20;2029127;85;21148;-82
2022/02/12 14:16:06;;;;;;;12.03;3.10;;;;;;;3.21;56.93;101830.28;2011234;85;21025;-79
2022/02/12 14:19:11;;;;;;;7.87;2.90;;;;;;;3.21;55.01;101837.72;2030333;85;21108;-79
2022/02/12 14:22:13;;;;;;;7.50;2.80;;;;;;;3.16;56.59;101836.25;2054512;85;21021;-79
2022/02/12 14:25:17;;;;;;;7.67;2.92;;;;;;;3.14;55.75;101831.91;2048590;85;21587;-79
2022/02/12 14:28:20;;;;;;;7.58;3.10;;;;;;;3.13;56.02;101816.27;2048387;85;21056;-80
2022/02/12 14:31:25;;;;;;;7.87;3.00;;;;;;;3.19;56.95;101830.37;2030874;85;21044;-81
2022/02/12 14:34:31;;;;;;;7.12;2.77;;;;;;;3.14;56.41;101821.41;1986939;86;21080;-81